ESST/TYF METAR and TAF weather

Enter ICAO airport designator
Station Type Date Time Source
ESST METAR 2021/03/03 21:20 UTC NOAA

ESST 032120Z AUTO 34007KT 9999 FEW061/// BKN076/// 02/M05 Q1018


Station Type Date Time Source
ESST Decoded METAR 2021/03/03 21:20 UTC NOAA

Station name not available
Mar 03, 2021 - 04:20 PM EST / 2021.03.03 2120 UTC
Wind: from the NNW (340 degrees) at 8 MPH (7 KT):0
Visibility: greater than 7 mile(s):0
Sky conditions: mostly cloudy
Temperature: 35 F (2 C)
Windchill: 28 F (-2 C):1
Dew Point: 23 F (-5 C)
Relative Humidity: 59%
Pressure (altimeter): 30.06 in. Hg (1018 hPa)
ob: ESST 032120Z AUTO 34007KT 9999 FEW061/// BKN076/// 02/M05 Q1018
cycle: 21

Station Type Date Time Source
ESST TAF UTC NOAA

Error!

Example: see airport list